createdAt,value
2023-05-05T00:01:03.024Z,101034.50
2023-05-05T00:03:30.199Z,101042.84
2023-05-05T00:05:58.074Z,101046.72
2023-05-05T00:08:25.126Z,101058.81
2023-05-05T00:10:53.793Z,101054.50
2023-05-05T00:13:21.771Z,101047.31
2023-05-05T00:15:52.026Z,101049.06
2023-05-05T00:18:19.920Z,101047.03
2023-05-05T00:20:47.773Z,101045.28
2023-05-05T00:23:16.283Z,101048.16
2023-05-05T00:25:43.810Z,101042.84
2023-05-05T00:28:10.920Z,101042.84
2023-05-05T00:30:40.064Z,101049.06
2023-05-05T00:33:07.129Z,101046.31
2023-05-05T00:35:34.728Z,101049.91
2023-05-05T00:38:01.801Z,101051.03
2023-05-05T00:40:28.765Z,101053.06
2023-05-05T00:42:55.627Z,101065.72
2023-05-05T00:45:22.643Z,101068.75
2023-05-05T00:47:54.659Z,101073.78
2023-05-05T00:50:30.143Z,101069.75
2023-05-05T00:53:02.000Z,101063.31
2023-05-05T00:55:30.021Z,101057.00
2023-05-05T00:58:03.169Z,101064.03
2023-05-05T01:00:31.159Z,101050.97
2023-05-05T01:02:59.549Z,101058.72
2023-05-05T01:05:39.413Z,101072.06
2023-05-05T01:08:43.869Z,101087.88
2023-05-05T01:11:44.914Z,101096.50
2023-05-05T01:14:23.058Z,101082.69
2023-05-05T01:17:01.327Z,101085.81
2023-05-05T01:19:51.012Z,101082.66
2023-05-05T01:22:23.045Z,101092.00
2023-05-05T01:25:20.605Z,101093.38
2023-05-05T01:28:09.290Z,101096.69
2023-05-05T01:31:06.466Z,101093.50
2023-05-05T01:33:44.093Z,101094.06
2023-05-05T01:36:22.776Z,101098.22
2023-05-05T01:39:00.704Z,101112.09
2023-05-05T01:41:43.284Z,101111.78
2023-05-05T01:44:14.743Z,101104.03
2023-05-05T01:46:41.558Z,101101.44
2023-05-05T01:49:11.645Z,101097.16
2023-05-05T01:51:41.342Z,101092.81
2023-05-05T01:54:10.371Z,101076.03
2023-05-05T01:56:41.183Z,101073.84
2023-05-05T01:59:10.258Z,101072.41
2023-05-05T02:01:44.824Z,101077.59
2023-05-05T02:04:14.558Z,101075.59
2023-05-05T02:06:44.427Z,101087.66
2023-05-05T02:09:13.951Z,101083.91
2023-05-05T02:11:41.540Z,101090.22
2023-05-05T02:14:11.664Z,101094.22
2023-05-05T02:16:41.929Z,101086.75
2023-05-05T02:19:10.118Z,101091.28
2023-05-05T02:21:38.030Z,101086.38
2023-05-05T02:24:10.277Z,101096.28
2023-05-05T02:26:43.176Z,101101.88
2023-05-05T02:29:17.695Z,101092.03
2023-05-05T02:31:50.714Z,101092.22
2023-05-05T02:34:28.089Z,101087.31
2023-05-05T02:37:05.507Z,101093.28
2023-05-05T02:40:06.045Z,101102.97
2023-05-05T02:42:46.334Z,101103.50
2023-05-05T02:45:18.394Z,101098.00
2023-05-05T02:47:48.559Z,101106.81
2023-05-05T02:50:18.251Z,101111.03
2023-05-05T02:52:57.140Z,101107.84
2023-05-05T02:55:36.866Z,101108.09
2023-05-05T02:58:17.174Z,101122.22
2023-05-05T03:01:00.052Z,101121.72
2023-05-05T03:03:40.311Z,101118.28
2023-05-05T03:06:22.796Z,101120.75
2023-05-05T03:09:08.588Z,101120.56
2023-05-05T03:11:49.978Z,101116.38
2023-05-05T03:14:21.385Z,101111.16
2023-05-05T03:16:50.411Z,101116.00
2023-05-05T03:19:19.847Z,101120.81
2023-05-05T03:21:50.364Z,101116.72
2023-05-05T03:24:20.134Z,101117.25
2023-05-05T03:27:13.140Z,101119.47
2023-05-05T03:29:40.192Z,101126.88
2023-05-05T03:32:11.736Z,101134.41
2023-05-05T03:34:40.066Z,101128.47
2023-05-05T03:37:06.936Z,101126.13
2023-05-05T03:39:33.924Z,101130.94
2023-05-05T03:42:01.507Z,101133.91
2023-05-05T03:44:32.008Z,101145.13
2023-05-05T03:46:58.964Z,101144.78
2023-05-05T03:49:27.059Z,101137.84
2023-05-05T03:51:54.317Z,101137.34
2023-05-05T03:54:21.231Z,101138.34
2023-05-05T03:56:48.126Z,101133.41
2023-05-05T03:59:14.946Z,101139.06
2023-05-05T04:01:42.163Z,101145.47
2023-05-05T04:04:09.672Z,101155.38
2023-05-05T04:06:36.654Z,101153.63
2023-05-05T04:09:03.737Z,101153.88
2023-05-05T04:11:31.362Z,101155.22
2023-05-05T04:13:58.475Z,101157.31
2023-05-05T04:16:27.411Z,101160.25
2023-05-05T04:18:55.411Z,101169.16
2023-05-05T04:21:22.315Z,101174.59
2023-05-05T04:23:49.404Z,101174.59
2023-05-05T04:26:16.564Z,101177.19
2023-05-05T04:28:43.618Z,101177.31
2023-05-05T04:31:10.692Z,101174.16
2023-05-05T04:33:40.995Z,101176.19
2023-05-05T04:36:08.652Z,101184.63
2023-05-05T04:38:35.530Z,101183.50
2023-05-05T04:41:06.674Z,101187.72
2023-05-05T04:43:34.678Z,101182.50
2023-05-05T04:46:01.734Z,101187.41
2023-05-05T04:48:31.604Z,101187.13
2023-05-05T04:50:58.478Z,101190.22
2023-05-05T04:53:25.500Z,101197.09
2023-05-05T04:55:52.398Z,101189.25
2023-05-05T04:58:19.278Z,101181.00
2023-05-05T05:00:46.577Z,101187.00
2023-05-05T05:03:13.513Z,101189.13
2023-05-05T05:05:40.345Z,101185.53
2023-05-05T05:08:08.272Z,101194.16
2023-05-05T05:10:36.329Z,101184.53
2023-05-05T05:13:03.262Z,101182.53
2023-05-05T05:15:30.174Z,101185.38
2023-05-05T05:17:57.460Z,101194.66
2023-05-05T05:20:24.981Z,101187.00
2023-05-05T05:22:54.021Z,101179.84
2023-05-05T05:25:21.795Z,101186.78
2023-05-05T05:27:58.576Z,101187.75
2023-05-05T05:30:36.129Z,101186.28
2023-05-05T05:33:05.511Z,101185.03
2023-05-05T05:35:32.550Z,101191.94
2023-05-05T05:37:59.443Z,101190.88
2023-05-05T05:40:26.373Z,101198.03
2023-05-05T05:42:53.178Z,101195.69
2023-05-05T05:45:20.332Z,101200.47
2023-05-05T05:47:47.285Z,101200.53
2023-05-05T05:50:14.450Z,101206.72
2023-05-05T05:52:41.940Z,101207.69
2023-05-05T05:55:09.556Z,101204.06
2023-05-05T05:57:37.345Z,101203.66
2023-05-05T06:00:07.515Z,101214.53
2023-05-05T06:02:43.351Z,101215.22
2023-05-05T06:05:14.050Z,101205.56
2023-05-05T06:07:43.115Z,101222.81
2023-05-05T06:10:25.609Z,101232.66
2023-05-05T06:12:58.198Z,101232.47
2023-05-05T06:15:25.988Z,101247.72
2023-05-05T06:17:53.052Z,101245.72
2023-05-05T06:20:20.005Z,101249.41
2023-05-05T06:22:46.888Z,101255.41
2023-05-05T06:25:13.768Z,101248.44
2023-05-05T06:27:40.580Z,101247.81
2023-05-05T06:30:09.696Z,101250.31
2023-05-05T06:32:36.738Z,101251.47
2023-05-05T06:35:07.536Z,101257.66
2023-05-05T06:37:34.496Z,101262.22
2023-05-05T06:40:01.500Z,101253.63
2023-05-05T06:42:28.484Z,101265.31
2023-05-05T06:44:58.144Z,101267.88
2023-05-05T06:47:25.319Z,101269.13
2023-05-05T06:49:52.349Z,101272.69
2023-05-05T06:52:19.386Z,101269.53
2023-05-05T06:54:46.180Z,101274.13
2023-05-05T06:57:12.972Z,101270.41
2023-05-05T06:59:39.814Z,101269.09
2023-05-05T07:02:06.707Z,101272.00
2023-05-05T07:04:33.566Z,101267.88
2023-05-05T07:07:00.504Z,101274.44
2023-05-05T07:09:27.453Z,101275.25
2023-05-05T07:11:54.340Z,101277.09
2023-05-05T07:14:23.392Z,101276.09
2023-05-05T07:16:51.524Z,101281.00
2023-05-05T07:19:18.543Z,101276.91
2023-05-05T07:21:45.324Z,101277.16
2023-05-05T07:24:15.234Z,101283.56
2023-05-05T07:26:42.189Z,101279.97
2023-05-05T07:29:08.980Z,101286.84
2023-05-05T07:31:35.967Z,101286.38
2023-05-05T07:34:02.809Z,101282.28
2023-05-05T07:36:29.748Z,101294.13
2023-05-05T07:38:56.589Z,101292.47
2023-05-05T07:41:23.460Z,101292.84
2023-05-05T07:43:50.333Z,101299.22
2023-05-05T07:46:18.155Z,101300.78
2023-05-05T07:48:45.556Z,101288.88
2023-05-05T07:51:12.392Z,101290.47
2023-05-05T07:53:41.301Z,101289.13
2023-05-05T07:56:09.020Z,101275.47
2023-05-05T07:58:35.935Z,101281.16
2023-05-05T08:01:02.904Z,101290.50
2023-05-05T08:03:29.877Z,101281.88
2023-05-05T08:05:57.020Z,101278.94
2023-05-05T08:08:24.955Z,101289.34
2023-05-05T08:10:53.229Z,101286.06
2023-05-05T08:13:20.744Z,101278.91
2023-05-05T08:15:47.871Z,101280.94
2023-05-05T08:18:15.059Z,101284.00
2023-05-05T08:20:41.973Z,101280.47
2023-05-05T08:23:08.917Z,101276.44
2023-05-05T08:25:36.101Z,101281.59
2023-05-05T08:28:03.294Z,101280.16
2023-05-05T08:30:30.295Z,101278.06
2023-05-05T08:32:57.472Z,101279.41
2023-05-05T08:35:24.596Z,101284.84
2023-05-05T08:37:51.854Z,101282.25
2023-05-05T08:40:21.325Z,101277.31
2023-05-05T08:42:48.427Z,101285.19
2023-05-05T08:45:15.980Z,101293.31
2023-05-05T08:47:43.687Z,101292.63
2023-05-05T08:50:12.111Z,101287.13
2023-05-05T08:52:45.762Z,101294.03
2023-05-05T08:55:26.491Z,101289.28
2023-05-05T08:57:57.053Z,101291.31
2023-05-05T09:00:26.996Z,101299.75
2023-05-05T09:02:58.210Z,101292.19
2023-05-05T09:05:26.566Z,101297.00
2023-05-05T09:07:53.700Z,101296.78
2023-05-05T09:10:20.998Z,101298.63
2023-05-05T09:12:50.436Z,101296.50
2023-05-05T09:15:17.265Z,101290.97
2023-05-05T09:17:44.295Z,101291.94
2023-05-05T09:20:15.373Z,101283.66
2023-05-05T09:22:44.064Z,101287.44
2023-05-05T09:25:17.399Z,101293.66
2023-05-05T09:27:49.342Z,101292.66
2023-05-05T09:30:24.428Z,101293.06
2023-05-05T09:32:54.426Z,101305.50
2023-05-05T09:35:23.290Z,101300.69
2023-05-05T09:37:50.442Z,101312.34
2023-05-05T09:40:19.529Z,101308.91
2023-05-05T09:42:47.352Z,101300.41
2023-05-05T09:45:20.232Z,101300.53
2023-05-05T09:47:48.702Z,101296.78
2023-05-05T09:50:19.005Z,101294.50
2023-05-05T09:53:00.715Z,101299.41
2023-05-05T09:55:28.545Z,101289.00
2023-05-05T09:57:55.707Z,101275.88
2023-05-05T10:00:37.279Z,101288.75
2023-05-05T10:03:04.563Z,101285.56
2023-05-05T10:05:31.580Z,101294.41
2023-05-05T10:08:15.672Z,101289.28
2023-05-05T10:11:01.018Z,101285.75
2023-05-05T10:13:28.951Z,101278.47
2023-05-05T10:15:57.940Z,101282.22
2023-05-05T10:18:28.636Z,101282.97
2023-05-05T10:21:04.033Z,101271.66
2023-05-05T10:23:56.071Z,101278.94
2023-05-05T10:26:26.748Z,101269.47
2023-05-05T10:29:04.045Z,101270.19
2023-05-05T10:31:46.152Z,101268.47
2023-05-05T10:34:52.589Z,101270.00
2023-05-05T10:37:22.764Z,101269.47
2023-05-05T10:39:51.263Z,101262.19
2023-05-05T10:42:21.105Z,101271.44
2023-05-05T10:44:49.162Z,101264.22
2023-05-05T10:47:22.512Z,101265.09
2023-05-05T10:50:16.378Z,101276.53
2023-05-05T10:53:19.208Z,101266.78
2023-05-05T10:56:02.590Z,101265.59
2023-05-05T10:58:58.269Z,101265.41
2023-05-05T11:01:35.433Z,101266.78
2023-05-05T11:04:22.031Z,101279.00
2023-05-05T11:07:14.422Z,101292.84
2023-05-05T11:10:01.599Z,101305.75
2023-05-05T11:12:30.877Z,101322.19
2023-05-05T11:15:29.053Z,101317.66
2023-05-05T11:17:57.933Z,101311.13
2023-05-05T11:20:39.507Z,101312.50
2023-05-05T11:23:06.561Z,101309.41
2023-05-05T11:25:36.722Z,101315.16
2023-05-05T11:28:19.016Z,101306.06
2023-05-05T11:30:54.737Z,101316.13
2023-05-05T11:33:40.933Z,101318.63
2023-05-05T11:36:11.627Z,101317.94
2023-05-05T11:39:12.844Z,101318.75
2023-05-05T11:41:58.772Z,101324.75
2023-05-05T11:44:34.480Z,101341.94
2023-05-05T11:47:04.042Z,101346.50
2023-05-05T11:49:32.734Z,101350.22
2023-05-05T11:52:06.284Z,101334.84
2023-05-05T11:54:36.430Z,101324.00
2023-05-05T11:57:08.344Z,101319.22
2023-05-05T11:59:37.482Z,101316.13
2023-05-05T12:02:04.977Z,101317.75
2023-05-05T12:04:32.202Z,101322.38
2023-05-05T12:07:00.188Z,101327.78
2023-05-05T12:09:27.458Z,101316.97
2023-05-05T12:11:57.344Z,101327.19
2023-05-05T12:14:25.658Z,101329.94
2023-05-05T12:17:02.917Z,101324.66
2023-05-05T12:19:33.126Z,101326.41
2023-05-05T12:22:04.678Z,101333.28
2023-05-05T12:24:31.763Z,101322.00
2023-05-05T12:27:12.157Z,101314.34
2023-05-05T12:29:39.213Z,101315.47
2023-05-05T12:32:06.540Z,101313.72
2023-05-05T12:34:33.970Z,101312.00
2023-05-05T12:37:01.583Z,101310.88
2023-05-05T12:39:39.180Z,101308.91
2023-05-05T12:42:06.490Z,101304.22
2023-05-05T12:44:40.877Z,101297.56
2023-05-05T12:47:08.068Z,101295.00
2023-05-05T12:49:49.867Z,101296.59
2023-05-05T12:52:17.344Z,101308.22
2023-05-05T12:54:59.150Z,101317.59
2023-05-05T12:57:27.181Z,101314.88
2023-05-05T12:59:54.619Z,101317.09
2023-05-05T13:02:21.540Z,101310.47
2023-05-05T13:04:57.476Z,101320.09
2023-05-05T13:07:24.305Z,101325.81
2023-05-05T13:09:51.301Z,101316.94
2023-05-05T13:12:19.120Z,101328.69
2023-05-05T13:14:47.142Z,101334.59
2023-05-05T13:17:14.801Z,101337.72
2023-05-05T13:19:42.761Z,101329.94
2023-05-05T13:22:10.228Z,101325.81
2023-05-05T13:24:49.827Z,101325.81
2023-05-05T13:27:19.249Z,101328.91
2023-05-05T13:29:46.232Z,101330.03
2023-05-05T13:32:13.105Z,101338.41
2023-05-05T13:34:40.033Z,101333.84
2023-05-05T13:37:07.143Z,101341.34
2023-05-05T13:39:34.151Z,101349.72
2023-05-05T13:42:00.985Z,101357.50
2023-05-05T13:44:27.884Z,101364.38
2023-05-05T13:46:54.824Z,101365.84
2023-05-05T13:49:21.766Z,101367.38
2023-05-05T13:51:48.657Z,101359.19
2023-05-05T13:54:15.741Z,101361.16
2023-05-05T13:56:43.755Z,101346.19
2023-05-05T13:59:10.740Z,101347.16
2023-05-05T14:01:37.973Z,101343.59
2023-05-05T14:04:05.832Z,101333.69
2023-05-05T14:06:33.912Z,101332.72
2023-05-05T14:09:01.397Z,101324.13
2023-05-05T14:11:28.278Z,101328.47
2023-05-05T14:13:55.175Z,101334.84
2023-05-05T14:16:22.077Z,101330.06
2023-05-05T14:18:48.962Z,101319.00
2023-05-05T14:21:15.815Z,101317.75
2023-05-05T14:23:42.724Z,101301.13
2023-05-05T14:26:09.642Z,101300.53
2023-05-05T14:28:36.492Z,101301.28
2023-05-05T14:31:03.460Z,101304.53
2023-05-05T14:33:30.395Z,101296.63
2023-05-05T14:35:57.372Z,101297.25
2023-05-05T14:38:24.328Z,101289.00
2023-05-05T14:40:51.249Z,101290.75
2023-05-05T14:43:18.050Z,101310.00
2023-05-05T14:45:45.025Z,101300.41
2023-05-05T14:48:11.969Z,101299.16
2023-05-05T14:50:39.994Z,101297.34
2023-05-05T14:53:06.869Z,101295.72
2023-05-05T14:55:33.741Z,101288.16
2023-05-05T14:58:00.860Z,101293.94
2023-05-05T15:00:27.912Z,101282.59
2023-05-05T15:02:54.840Z,101275.91
2023-05-05T15:05:21.907Z,101286.47
2023-05-05T15:07:48.750Z,101278.94
2023-05-05T15:10:15.784Z,101265.69
2023-05-05T15:12:43.065Z,101276.69
2023-05-05T15:15:10.847Z,101265.69
2023-05-05T15:17:38.826Z,101276.81
2023-05-05T15:20:08.697Z,101278.31
2023-05-05T15:22:35.602Z,101277.59
2023-05-05T15:25:02.592Z,101272.81
2023-05-05T15:27:30.662Z,101267.56
2023-05-05T15:29:57.763Z,101264.84
2023-05-05T15:32:24.750Z,101274.09
2023-05-05T15:34:51.620Z,101268.22
2023-05-05T15:37:18.426Z,101260.19
2023-05-05T15:39:45.368Z,101269.59
2023-05-05T15:42:12.247Z,101273.00
2023-05-05T15:44:39.276Z,101274.94
2023-05-05T15:47:07.315Z,101282.06
2023-05-05T15:49:34.253Z,101280.81
2023-05-05T15:52:01.232Z,101274.25
2023-05-05T15:54:28.138Z,101280.56
2023-05-05T15:56:55.342Z,101271.41
2023-05-05T15:59:22.716Z,101272.56
2023-05-05T16:01:49.611Z,101263.28
2023-05-05T16:04:16.462Z,101264.97
2023-05-05T16:06:43.621Z,101258.59
2023-05-05T16:09:10.646Z,101256.81
2023-05-05T16:11:37.554Z,101251.88
2023-05-05T16:14:04.765Z,101255.22
2023-05-05T16:16:31.635Z,101258.97
2023-05-05T16:18:58.563Z,101252.53
2023-05-05T16:21:25.835Z,101252.56
2023-05-05T16:23:52.758Z,101253.41
2023-05-05T16:26:19.945Z,101256.31
2023-05-05T16:28:46.845Z,101250.88
2023-05-05T16:31:13.735Z,101258.81
2023-05-05T16:33:43.528Z,101259.66
2023-05-05T16:36:12.789Z,101253.66
2023-05-05T16:38:41.906Z,101250.63
2023-05-05T16:41:08.819Z,101254.06
2023-05-05T16:43:38.382Z,101256.59
2023-05-05T16:46:06.382Z,101250.94
2023-05-05T16:48:33.286Z,101257.13
2023-05-05T16:51:00.203Z,101254.63
2023-05-05T16:53:27.090Z,101258.97
2023-05-05T16:55:54.006Z,101264.28
2023-05-05T16:58:22.842Z,101258.66
2023-05-05T17:00:51.464Z,101261.91
2023-05-05T17:03:20.459Z,101260.44
2023-05-05T17:05:50.156Z,101255.47
2023-05-05T17:08:17.228Z,101260.28
2023-05-05T17:10:45.439Z,101250.75
2023-05-05T17:13:14.255Z,101255.25
2023-05-05T17:15:41.850Z,101255.81
2023-05-05T17:18:08.903Z,101251.16
2023-05-05T17:20:36.465Z,101244.75
2023-05-05T17:23:03.779Z,101247.91
2023-05-05T17:25:31.355Z,101248.09
2023-05-05T17:27:58.316Z,101249.63
2023-05-05T17:30:25.641Z,101251.56
2023-05-05T17:32:52.866Z,101247.38
2023-05-05T17:35:19.897Z,101244.31
2023-05-05T17:37:46.867Z,101236.78
2023-05-05T17:40:13.777Z,101242.00
2023-05-05T17:42:40.646Z,101242.53
2023-05-05T17:45:08.794Z,101248.22
2023-05-05T17:47:36.238Z,101236.84
2023-05-05T17:50:03.729Z,101245.25
2023-05-05T17:52:30.673Z,101243.81
2023-05-05T17:54:57.622Z,101234.28
2023-05-05T17:57:24.431Z,101239.38
2023-05-05T17:59:53.296Z,101242.50
2023-05-05T18:02:20.424Z,101248.28
2023-05-05T18:04:47.725Z,101249.53
2023-05-05T18:07:14.993Z,101245.34
2023-05-05T18:09:42.959Z,101240.28
2023-05-05T18:12:09.889Z,101250.53
2023-05-05T18:14:37.031Z,101250.81
2023-05-05T18:17:04.718Z,101256.50
2023-05-05T18:19:31.700Z,101262.03
2023-05-05T18:21:59.104Z,101262.16
2023-05-05T18:24:26.158Z,101264.03
2023-05-05T18:26:53.267Z,101258.72
2023-05-05T18:29:21.907Z,101257.97
2023-05-05T18:31:53.049Z,101263.81
2023-05-05T18:34:21.009Z,101265.63
2023-05-05T18:36:54.147Z,101269.34
2023-05-05T18:39:21.289Z,101263.19
2023-05-05T18:41:48.216Z,101265.13
2023-05-05T18:44:16.159Z,101270.84
2023-05-05T18:46:46.969Z,101263.91
2023-05-05T18:49:13.920Z,101278.72
2023-05-05T18:51:41.421Z,101272.78
2023-05-05T18:54:09.508Z,101273.97
2023-05-05T18:56:36.865Z,101282.75
2023-05-05T18:59:04.769Z,101276.91
2023-05-05T19:01:31.731Z,101283.69
2023-05-05T19:03:58.705Z,101285.06
2023-05-05T19:06:25.593Z,101287.25
2023-05-05T19:08:52.673Z,101290.34
2023-05-05T19:11:19.534Z,101302.56
2023-05-05T19:13:46.665Z,101300.16
2023-05-05T19:16:13.528Z,101296.97
2023-05-05T19:18:40.486Z,101306.31
2023-05-05T19:21:07.365Z,101311.09
2023-05-05T19:23:36.045Z,101310.63
2023-05-05T19:26:03.787Z,101318.13
2023-05-05T19:28:30.711Z,101317.50
2023-05-05T19:30:57.536Z,101324.38
2023-05-05T19:33:24.400Z,101322.09
2023-05-05T19:35:51.445Z,101315.38
2023-05-05T19:38:18.346Z,101323.03
2023-05-05T19:40:45.169Z,101319.78
2023-05-05T19:43:12.004Z,101319.16
2023-05-05T19:45:39.077Z,101316.53
2023-05-05T19:48:06.741Z,101322.19
2023-05-05T19:50:33.576Z,101320.47
2023-05-05T19:53:00.605Z,101323.19
2023-05-05T19:55:27.476Z,101311.78
2023-05-05T19:57:54.334Z,101315.91
2023-05-05T20:00:21.677Z,101315.25
2023-05-05T20:02:49.270Z,101323.75
2023-05-05T20:05:17.607Z,101323.09
2023-05-05T20:07:46.326Z,101323.31
2023-05-05T20:10:13.719Z,101322.66
2023-05-05T20:12:51.383Z,101319.41
2023-05-05T20:15:20.909Z,101318.78
2023-05-05T20:17:48.655Z,101321.59
2023-05-05T20:20:20.042Z,101320.09
2023-05-05T20:22:48.435Z,101325.72
2023-05-05T20:25:16.440Z,101320.53
2023-05-05T20:27:44.113Z,101311.84
2023-05-05T20:30:12.320Z,101318.59
2023-05-05T20:32:39.539Z,101316.19
2023-05-05T20:35:07.360Z,101321.84
2023-05-05T20:37:34.339Z,101321.31
2023-05-05T20:40:01.300Z,101317.84
2023-05-05T20:42:29.609Z,101309.16
2023-05-05T20:44:57.060Z,101314.03
2023-05-05T20:47:24.791Z,101308.94
2023-05-05T20:49:52.565Z,101314.56
2023-05-05T20:52:19.960Z,101312.16
2023-05-05T20:54:46.810Z,101309.69
2023-05-05T20:57:13.701Z,101310.84
2023-05-05T20:59:40.514Z,101307.50
2023-05-05T21:02:07.845Z,101306.88
2023-05-05T21:04:34.800Z,101305.31
2023-05-05T21:07:01.642Z,101311.19
2023-05-05T21:09:29.018Z,101318.75
2023-05-05T21:11:55.846Z,101320.69
2023-05-05T21:14:23.427Z,101317.13
2023-05-05T21:16:50.314Z,101323.28
2023-05-05T21:19:17.158Z,101322.19
2023-05-05T21:21:44.319Z,101312.88
2023-05-05T21:24:12.997Z,101317.25
2023-05-05T21:26:44.296Z,101312.50
2023-05-05T21:29:11.740Z,101308.94
2023-05-05T21:31:38.593Z,101309.03
2023-05-05T21:34:05.486Z,101308.13
2023-05-05T21:36:33.757Z,101300.16
2023-05-05T21:39:00.922Z,101299.50
2023-05-05T21:41:27.861Z,101302.28
2023-05-05T21:43:54.757Z,101306.84
2023-05-05T21:46:21.726Z,101292.31
2023-05-05T21:48:48.604Z,101301.84
2023-05-05T21:51:15.590Z,101309.97
2023-05-05T21:53:42.422Z,101307.28
2023-05-05T21:56:09.421Z,101300.81
2023-05-05T21:58:36.264Z,101309.78
2023-05-05T22:01:03.158Z,101301.66
2023-05-05T22:03:30.082Z,101302.31
2023-05-05T22:05:57.266Z,101305.13
2023-05-05T22:08:24.144Z,101305.13
2023-05-05T22:10:51.497Z,101293.53
2023-05-05T22:13:18.386Z,101297.00
2023-05-05T22:15:47.423Z,101288.03
2023-05-05T22:18:15.554Z,101296.44
2023-05-05T22:20:42.649Z,101300.16
2023-05-05T22:23:09.551Z,101296.44
2023-05-05T22:25:36.511Z,101290.81
2023-05-05T22:28:03.670Z,101297.75
2023-05-05T22:30:30.769Z,101293.94
2023-05-05T22:32:57.575Z,101296.78
2023-05-05T22:35:24.569Z,101286.28
2023-05-05T22:37:51.672Z,101294.50
2023-05-05T22:40:18.584Z,101296.44
2023-05-05T22:42:45.491Z,101289.63
2023-05-05T22:45:13.714Z,101282.59
2023-05-05T22:47:41.025Z,101284.84
2023-05-05T22:50:08.970Z,101278.75
2023-05-05T22:52:36.314Z,101278.00
2023-05-05T22:55:03.890Z,101279.94
2023-05-05T22:57:30.921Z,101287.31
2023-05-05T22:59:57.743Z,101281.91
2023-05-05T23:02:26.609Z,101280.91
2023-05-05T23:04:53.721Z,101283.41
2023-05-05T23:07:20.893Z,101273.69
2023-05-05T23:09:48.137Z,101274.53
2023-05-05T23:12:17.553Z,101278.19
2023-05-05T23:14:44.432Z,101274.53
2023-05-05T23:17:11.672Z,101281.25
2023-05-05T23:19:38.615Z,101281.31
2023-05-05T23:22:05.564Z,101281.25
2023-05-05T23:24:32.930Z,101288.38
2023-05-05T23:27:04.005Z,101285.56
2023-05-05T23:29:31.032Z,101294.25
2023-05-05T23:31:58.463Z,101293.38
2023-05-05T23:34:26.616Z,101300.63
2023-05-05T23:36:53.412Z,101303.56
2023-05-05T23:39:20.334Z,101300.94
2023-05-05T23:41:47.169Z,101303.31
2023-05-05T23:44:13.998Z,101286.88
2023-05-05T23:46:40.864Z,101278.88
2023-05-05T23:49:07.769Z,101278.00
2023-05-05T23:51:34.576Z,101285.13
2023-05-05T23:54:01.682Z,101278.88
2023-05-05T23:56:29.693Z,101278.47
2023-05-05T23:58:56.431Z,101277.56
